Observations for BIRMINGHAM AIRPORT, United Kingdom (EGBB)

EGBB 201650Z 32014KT 9999 FEW024 18/09 Q1019
EGBB 201620Z 31013KT 9999 FEW024 SCT042 18/12 Q1019 
EGBB 201550Z 33012KT 290V350 9999 SCT030 BKN042 19/12 Q1019 
EGBB 201520Z 31014KT 9999 SCT033 20/13 Q1018
EGBB 201450Z 30012KT 9999 BKN032 21/14 Q1018
EGBB 201420Z 27010KT 220V300 9999 BKN030 22/14 Q1018
EGBB 201350Z 26010KT 230V300 9999 BKN032 22/15 Q1018
EGBB 201320Z 25010G20KT 220V290 9999 BKN033 22/14 Q1017 
EGBB 201250Z 23013KT 200V280 9999 FEW022 SCT040 22/14 Q1018 
EGBB 201220Z 24010KT 200V280 9999 SCT025 SCT043 20/15 Q1018 
EGBB 201150Z 24010KT 210V280 9999 SCT018 BKN023 20/15 Q1018 
EGBB 201120Z 24007KT 200V290 9999 SCT016 BKN027 20/16 Q1018 
EGBB 201050Z 23010KT 200V260 9000 VCSH BKN016 19/16 Q1018   
EGBB 201020Z 23009KT 200V270 9000 VCSH BKN020 19/15 Q1018   
EGBB 200950Z 22010KT 190V260 9999 BKN020 19/15 Q1018
EGBB 200920Z 22011KT 180V250 9999 BKN021 20/15 Q1018
EGBB 200850Z 22010KT 180V260 9999 BKN022 19/15 Q1018
EGBB 200820Z 20008KT 150V230 9999 BKN018 19/15 Q1018
EGBB 200750Z 21006KT 160V250 9999 SCT020 BKN025 18/15 Q1018 
EGBB 200720Z 21006KT 160V260 9999 BKN016 BKN023 18/15 Q1018 
EGBB 200650Z 20010KT 160V250 9999 BKN014 18/15 Q1018
EGBB 200620Z 20008KT 150V240 9999 SCT013 SCT032 17/15 Q1018 
EGBB 200550Z 21008KT 180V260 9999 SCT014 17/14 Q1018
EGBB 200520Z 21009KT 180V250 9999 FEW013 17/14 Q1018
EGBB 200450Z 20009KT 170V240 9999 FEW014 17/14 Q1018
EGBB 200420Z 21007KT 170V250 9999 SCT015 BKN021 17/14 Q1019 
EGBB 200350Z 22006KT 180V250 9999 FEW017 BKN024 17/14 Q1019 
EGBB 200320Z 21007KT 160V240 9999 BKN022 17/14 Q1019
EGBB 200250Z 21008KT 180V240 9999 SCT021 17/14 Q1019
EGBB 200220Z 21006KT 170V250 9999 BKN023 17/15 Q1019
EGBB 200150Z 21007KT 180V250 9999 BKN023 17/14 Q1019
EGBB 200120Z 21007KT 170V240 9999 BKN024 17/15 Q1019
EGBB 200050Z 20006KT 170V230 9999 BKN024 17/15 Q1020
EGBB 200020Z 19005KT 150V220 9999 BKN026 17/15 Q1020
EGBB 192350Z 21004KT 180V250 9999 BKN027 17/16 Q1020
EGBB 192320Z 20006KT 160V230 9999 BKN028 17/16 Q1020
EGBB 192250Z VRB03KT 9999 SCT030 17/16 Q1020
EGBB 192220Z 22006KT 180V250 CAVOK 18/16 Q1020  
EGBB 192150Z 21005KT 160V270 CAVOK 18/16 Q1021  
EGBB 192120Z 25007KT 200V280 9999 SCT034 19/16 Q1021
EGBB 192050Z 22009KT 180V260 9999 SCT034 19/16 Q1021
EGBB 192020Z 22007KT 180V270 9999 SCT032 20/16 Q1020
EGBB 191950Z 22007KT 170V250 9999 FEW028 SCT043 20/16 Q1020 
EGBB 191920Z 24007KT 210V280 9999 FEW028 SCT044 21/16 Q1020 
EGBB 191850Z 25009KT 210V280 9999 FEW028 SCT044 21/16 Q1021 
EGBB 191820Z 24007KT 170V270 9999 FEW028 SCT044 21/15 Q1021 
EGBB 191750Z 24008KT 200V280 9999 SCT030 SCT049 21/16 Q1021 
EGBB 191720Z 24010KT 200V270 9999 SCT033 BKN045 22/16 Q1021 
EGBB 191650Z 23010KT 190V270 9999 BKN040 22/16 Q1021
EGBB 191620Z 25008KT 210V270 9999 BKN024 21/16 Q1021